Terminal Aerodrome Forecast
Issued by NWS

Home | Current Version | Previous Version | Text Only | Print | Product List | Glossary On
Versions: 1 2 3 4 5 6 7 8 9 10 11 12 13 14 15 16 17 18 19 20 21 22
000
FTUS42 KTBW 190500
TAFPGD
TAF
KPGD 190538Z 1906/2006 VRB03KT P6SM BKN040 BKN250
     FM191200 07007KT P6SM VCSH BKN040 BKN070
     FM191500 04006KT 6SM SHRA VCTS BKN035CB BKN100 OVC150
     FM200100 05006KT 6SM SHRA BR SCT020 BKN035 OVC100=

USA.gov is the U.S. government's official web portal to all federal, state and local government web resources and services.